createdAt,value
2022-09-18T00:00:45.817Z,27.70
2022-09-18T00:05:51.803Z,27.80
2022-09-18T00:10:57.693Z,27.90
2022-09-18T00:16:03.469Z,28.00
2022-09-18T00:21:14.904Z,28.10
2022-09-18T00:26:21.614Z,28.30
2022-09-18T00:31:33.861Z,28.60
2022-09-18T00:36:41.531Z,29.30
2022-09-18T00:41:47.659Z,29.80
2022-09-18T00:46:53.586Z,29.80
2022-09-18T00:52:02.193Z,30.20
2022-09-18T00:57:35.773Z,30.90
2022-09-18T01:02:47.088Z,31.30
2022-09-18T01:08:19.522Z,31.40
2022-09-18T01:13:34.415Z,31.80
2022-09-18T01:19:10.891Z,32.50
2022-09-18T01:24:36.142Z,32.60
2022-09-18T01:30:12.710Z,33.00
2022-09-18T01:35:39.908Z,32.70
2022-09-18T01:41:29.120Z,32.30
2022-09-18T01:46:39.866Z,32.80
2022-09-18T01:52:20.749Z,33.50
2022-09-18T01:57:51.448Z,34.20
2022-09-18T02:03:16.376Z,34.10
2022-09-18T02:08:42.624Z,34.00
2022-09-18T02:13:55.125Z,33.40
2022-09-18T02:19:40.312Z,32.30
2022-09-18T02:24:49.097Z,31.50
2022-09-18T02:29:55.957Z,31.10
2022-09-18T02:35:02.039Z,31.20
2022-09-18T02:40:40.730Z,32.00
2022-09-18T02:46:12.090Z,33.10
2022-09-18T02:51:37.085Z,34.80
2022-09-18T02:57:03.736Z,34.00
2022-09-18T03:02:11.351Z,32.90
2022-09-18T03:07:19.056Z,31.90
2022-09-18T03:12:27.356Z,31.30
2022-09-18T03:17:32.987Z,31.30
2022-09-18T03:22:40.546Z,31.40
2022-09-18T03:27:48.686Z,31.50
2022-09-18T03:33:04.498Z,32.60
2022-09-18T03:38:11.446Z,33.70
2022-09-18T03:43:17.396Z,34.70
2022-09-18T03:48:25.257Z,34.90
2022-09-18T03:53:31.297Z,34.80
2022-09-18T03:58:55.379Z,34.80
2022-09-18T04:04:39.454Z,35.10
2022-09-18T04:09:45.105Z,35.10
2022-09-18T04:14:51.215Z,34.90
2022-09-18T04:19:57.695Z,34.70
2022-09-18T04:25:04.175Z,34.40
2022-09-18T04:30:10.739Z,35.00
2022-09-18T04:35:20.309Z,37.00
2022-09-18T04:40:26.077Z,37.60
2022-09-18T04:45:32.035Z,39.20
2022-09-18T04:50:37.949Z,38.20
2022-09-18T04:55:57.399Z,37.80
2022-09-18T05:01:03.765Z,37.10
2022-09-18T05:06:10.547Z,38.30
2022-09-18T05:11:16.382Z,38.80
2022-09-18T05:16:22.589Z,38.90
2022-09-18T05:21:47.275Z,39.40
2022-09-18T05:26:53.291Z,40.00
2022-09-18T05:32:00.520Z,40.30
2022-09-18T05:37:07.342Z,40.50
2022-09-18T05:42:13.508Z,41.00
2022-09-18T05:47:20.978Z,40.60
2022-09-18T05:52:26.887Z,41.10
2022-09-18T05:57:32.696Z,41.40
2022-09-18T06:02:38.790Z,41.40
2022-09-18T06:07:53.678Z,41.60
2022-09-18T06:13:09.949Z,41.30
2022-09-18T06:18:20.697Z,41.40
2022-09-18T06:23:28.793Z,42.10
2022-09-18T06:28:53.386Z,41.90
2022-09-18T06:33:59.462Z,42.10
2022-09-18T06:39:05.411Z,42.80
2022-09-18T06:44:11.022Z,43.90
2022-09-18T06:49:27.123Z,43.80
2022-09-18T06:54:33.010Z,44.00
2022-09-18T06:59:40.386Z,44.30
2022-09-18T07:04:46.377Z,44.40
2022-09-18T07:09:54.531Z,45.30
2022-09-18T07:15:03.093Z,45.10
2022-09-18T07:20:09.500Z,44.80
2022-09-18T07:25:18.631Z,45.20
2022-09-18T07:30:26.470Z,45.50
2022-09-18T07:35:33.158Z,45.40
2022-09-18T07:40:44.806Z,45.30
2022-09-18T07:45:58.349Z,45.00
2022-09-18T07:51:07.789Z,45.40
2022-09-18T07:56:15.879Z,45.20
2022-09-18T08:01:22.020Z,43.00
2022-09-18T08:06:33.336Z,41.00
2022-09-18T08:12:02.493Z,39.50
2022-09-18T08:17:17.131Z,38.20
2022-09-18T08:22:46.278Z,37.30
2022-09-18T08:27:52.551Z,36.90
2022-09-18T08:33:11.144Z,36.40
2022-09-18T08:38:18.403Z,36.40
2022-09-18T08:44:05.854Z,36.30
2022-09-18T08:49:23.389Z,36.10
2022-09-18T08:54:44.001Z,35.80
2022-09-18T09:00:18.538Z,35.80
2022-09-18T09:05:38.324Z,35.50
2022-09-18T09:11:02.622Z,35.30
2022-09-18T09:16:44.776Z,35.00
2022-09-18T09:21:57.811Z,34.90
2022-09-18T09:27:22.011Z,34.90
2022-09-18T09:33:00.630Z,34.60
2022-09-18T09:39:03.373Z,34.40
2022-09-18T09:44:22.625Z,34.30
2022-09-18T09:49:42.861Z,34.00
2022-09-18T09:54:49.427Z,33.90
2022-09-18T10:00:14.635Z,33.70
2022-09-18T10:06:02.176Z,33.50
2022-09-18T10:11:13.156Z,33.40
2022-09-18T10:16:31.952Z,33.30
2022-09-18T10:21:40.704Z,33.10
2022-09-18T10:27:00.352Z,32.90
2022-09-18T10:32:08.597Z,32.70
2022-09-18T10:37:42.003Z,32.50
2022-09-18T10:43:00.393Z,32.40
2022-09-18T10:48:28.121Z,32.30
2022-09-18T10:53:44.229Z,32.10
2022-09-18T10:59:14.777Z,32.00
2022-09-18T11:04:25.212Z,31.80
2022-09-18T11:09:42.641Z,31.70
2022-09-18T11:15:04.465Z,31.50
2022-09-18T11:20:45.889Z,31.40
2022-09-18T11:26:22.995Z,31.30
2022-09-18T11:31:40.632Z,31.30
2022-09-18T11:36:52.642Z,31.20
2022-09-18T11:41:58.992Z,31.20
2022-09-18T11:47:46.845Z,31.20
2022-09-18T11:53:00.625Z,31.10
2022-09-18T11:58:30.886Z,31.00
2022-09-18T12:03:44.386Z,31.00
2022-09-18T12:08:53.110Z,30.90
2022-09-18T12:14:23.619Z,30.90
2022-09-18T12:20:00.604Z,30.90
2022-09-18T12:25:19.956Z,30.80
2022-09-18T12:31:13.760Z,30.80
2022-09-18T12:36:32.123Z,30.80
2022-09-18T12:42:02.690Z,30.80
2022-09-18T12:47:35.823Z,30.80
2022-09-18T12:53:18.316Z,30.70
2022-09-18T12:58:56.431Z,30.70
2022-09-18T13:04:34.492Z,30.70
2022-09-18T13:09:58.365Z,30.60
2022-09-18T13:15:20.729Z,30.60
2022-09-18T13:20:45.545Z,30.70
2022-09-18T13:25:53.395Z,30.70
2022-09-18T13:31:17.516Z,30.50
2022-09-18T13:36:33.181Z,30.40
2022-09-18T13:41:49.180Z,30.10
2022-09-18T13:46:59.870Z,30.00
2022-09-18T13:52:36.550Z,29.90
2022-09-18T13:57:47.221Z,29.80
2022-09-18T14:02:53.725Z,29.80
2022-09-18T14:08:05.710Z,29.70
2022-09-18T14:13:20.707Z,29.70
2022-09-18T14:18:49.757Z,29.70
2022-09-18T14:24:07.081Z,29.50
2022-09-18T14:29:16.503Z,29.40
2022-09-18T14:34:43.462Z,29.50
2022-09-18T14:39:50.100Z,29.30
2022-09-18T14:45:16.812Z,29.30
2022-09-18T14:50:25.800Z,29.20
2022-09-18T14:55:54.604Z,29.20
2022-09-18T15:01:01.386Z,29.20
2022-09-18T15:06:20.412Z,29.20
2022-09-18T15:11:37.763Z,29.20
2022-09-18T15:17:04.024Z,29.10
2022-09-18T15:22:23.027Z,29.10
2022-09-18T15:27:30.436Z,29.10
2022-09-18T15:32:42.766Z,29.10
2022-09-18T15:38:02.710Z,29.10
2022-09-18T15:43:28.659Z,29.00
2022-09-18T15:48:49.816Z,28.90
2022-09-18T15:54:14.327Z,28.80
2022-09-18T15:59:42.310Z,28.80
2022-09-18T16:04:48.030Z,28.70
2022-09-18T16:09:54.716Z,28.60
2022-09-18T16:15:03.579Z,28.60
2022-09-18T16:20:34.896Z,28.60
2022-09-18T16:25:43.547Z,28.60
2022-09-18T16:30:49.539Z,28.60
2022-09-18T16:36:03.051Z,28.70
2022-09-18T16:41:08.575Z,28.80
2022-09-18T16:46:15.763Z,28.80
2022-09-18T16:51:21.610Z,28.80
2022-09-18T16:56:34.176Z,28.80
2022-09-18T17:02:02.424Z,28.70
2022-09-18T17:07:08.241Z,28.70
2022-09-18T17:12:13.776Z,28.60
2022-09-18T17:17:19.747Z,28.60
2022-09-18T17:22:25.521Z,28.50
2022-09-18T17:27:32.083Z,28.50
2022-09-18T17:32:38.130Z,28.40
2022-09-18T17:37:44.117Z,28.30
2022-09-18T17:42:49.847Z,28.30
2022-09-18T17:47:56.147Z,28.30
2022-09-18T17:53:02.282Z,28.40
2022-09-18T17:58:07.903Z,28.40
2022-09-18T18:03:13.996Z,28.30
2022-09-18T18:08:19.657Z,28.30
2022-09-18T18:13:25.992Z,28.20
2022-09-18T18:18:31.928Z,28.20
2022-09-18T18:23:41.126Z,28.20
2022-09-18T18:28:47.050Z,28.20
2022-09-18T18:33:52.593Z,28.20
2022-09-18T18:39:02.349Z,28.20
2022-09-18T18:44:08.317Z,28.20
2022-09-18T18:49:16.796Z,28.20
2022-09-18T18:54:24.260Z,28.20
2022-09-18T18:59:29.989Z,28.20
2022-09-18T19:04:36.375Z,28.20
2022-09-18T19:09:42.225Z,28.20
2022-09-18T19:14:48.104Z,28.20
2022-09-18T19:19:54.783Z,28.20
2022-09-18T19:25:02.887Z,28.20
2022-09-18T19:30:09.250Z,28.10
2022-09-18T19:35:15.151Z,28.00
2022-09-18T19:40:21.255Z,28.00
2022-09-18T19:45:30.531Z,27.90
2022-09-18T19:50:40.876Z,27.90
2022-09-18T19:55:48.713Z,27.80
2022-09-18T20:00:54.350Z,27.80
2022-09-18T20:06:03.509Z,27.70
2022-09-18T20:11:09.506Z,27.70
2022-09-18T20:16:15.749Z,27.80
2022-09-18T20:21:21.993Z,27.80
2022-09-18T20:26:28.280Z,27.70
2022-09-18T20:31:33.847Z,27.60
2022-09-18T20:36:39.928Z,27.60
2022-09-18T20:41:45.525Z,27.60
2022-09-18T20:46:58.112Z,27.60
2022-09-18T20:52:05.247Z,27.50
2022-09-18T20:57:11.657Z,27.50
2022-09-18T21:02:19.078Z,27.50
2022-09-18T21:07:26.211Z,27.40
2022-09-18T21:12:40.426Z,27.40
2022-09-18T21:17:46.095Z,27.40
2022-09-18T21:23:10.759Z,27.30
2022-09-18T21:28:16.539Z,27.30
2022-09-18T21:33:22.790Z,27.30
2022-09-18T21:38:29.477Z,27.30
2022-09-18T21:43:35.494Z,27.30
2022-09-18T21:48:45.466Z,27.30
2022-09-18T21:53:51.940Z,27.30
2022-09-18T21:58:58.719Z,27.20
2022-09-18T22:04:05.862Z,27.20
2022-09-18T22:09:14.646Z,27.20
2022-09-18T22:14:26.842Z,27.20
2022-09-18T22:19:38.039Z,27.20
2022-09-18T22:24:45.485Z,27.20
2022-09-18T22:29:52.437Z,27.20
2022-09-18T22:34:58.015Z,27.20
2022-09-18T22:40:03.878Z,27.10
2022-09-18T22:45:10.711Z,27.10
2022-09-18T22:50:16.622Z,27.10
2022-09-18T22:55:23.473Z,27.10
2022-09-18T23:00:29.631Z,27.20
2022-09-18T23:05:41.568Z,27.30
2022-09-18T23:10:47.458Z,27.30
2022-09-18T23:15:53.339Z,27.50
2022-09-18T23:21:04.205Z,27.60
2022-09-18T23:26:13.036Z,27.80
2022-09-18T23:31:27.253Z,28.10
2022-09-18T23:36:39.008Z,28.30
2022-09-18T23:41:45.674Z,28.40
2022-09-18T23:46:55.249Z,28.60
2022-09-18T23:52:01.441Z,28.70
2022-09-18T23:57:07.639Z,28.90
